sensor_id;sensor_type;location;lat;lon;timestamp;P1;durP1;ratioP1;P2;durP2;ratioP2
20348;SDS011;10332;50.208;18.988;2023-07-13T00:00:53;5.32;;;2.50;;
20348;SDS011;10332;50.208;18.988;2023-07-13T00:03:39;3.47;;;2.33;;
20348;SDS011;10332;50.208;18.988;2023-07-13T00:06:08;2.10;;;1.90;;
20348;SDS011;10332;50.208;18.988;2023-07-13T00:08:37;2.35;;;1.90;;
20348;SDS011;10332;50.208;18.988;2023-07-13T00:11:05;2.78;;;1.92;;
20348;SDS011;10332;50.208;18.988;2023-07-13T00:13:33;3.00;;;2.00;;
20348;SDS011;10332;50.208;18.988;2023-07-13T00:16:01;1.60;;;1.50;;
20348;SDS011;10332;50.208;18.988;2023-07-13T00:18:29;1.85;;;1.58;;
20348;SDS011;10332;50.208;18.988;2023-07-13T00:20:57;1.77;;;1.58;;
20348;SDS011;10332;50.208;18.988;2023-07-13T00:23:35;2.25;;;1.60;;
20348;SDS011;10332;50.208;18.988;2023-07-13T00:26:08;2.75;;;1.60;;
20348;SDS011;10332;50.208;18.988;2023-07-13T00:28:38;3.08;;;2.00;;
20348;SDS011;10332;50.208;18.988;2023-07-13T00:31:07;2.60;;;1.92;;
20348;SDS011;10332;50.208;18.988;2023-07-13T00:33:36;2.60;;;1.70;;
20348;SDS011;10332;50.208;18.988;2023-07-13T00:36:04;2.17;;;1.67;;
20348;SDS011;10332;50.208;18.988;2023-07-13T00:38:31;2.65;;;1.67;;
20348;SDS011;10332;50.208;18.988;2023-07-13T00:40:59;1.88;;;1.40;;
20348;SDS011;10332;50.208;18.988;2023-07-13T00:43:28;1.52;;;1.42;;
20348;SDS011;10332;50.208;18.988;2023-07-13T00:48:45;2.00;;;1.80;;
20348;SDS011;10332;50.208;18.988;2023-07-13T00:51:16;2.03;;;1.67;;
20348;SDS011;10332;50.208;18.988;2023-07-13T00:53:51;1.40;;;1.30;;
20348;SDS011;10332;50.208;18.988;2023-07-13T00:56:23;1.58;;;1.45;;
20348;SDS011;10332;50.208;18.988;2023-07-13T00:58:52;1.38;;;1.27;;
20348;SDS011;10332;50.208;18.988;2023-07-13T01:01:21;1.80;;;1.38;;
20348;SDS011;10332;50.208;18.988;2023-07-13T01:03:48;1.48;;;1.33;;
20348;SDS011;10332;50.208;18.988;2023-07-13T01:06:17;1.33;;;1.23;;
20348;SDS011;10332;50.208;18.988;2023-07-13T01:08:44;0.88;;;0.82;;
20348;SDS011;10332;50.208;18.988;2023-07-13T01:11:12;1.25;;;1.15;;
20348;SDS011;10332;50.208;18.988;2023-07-13T01:13:48;2.10;;;1.65;;
20348;SDS011;10332;50.208;18.988;2023-07-13T01:16:22;2.38;;;1.75;;
20348;SDS011;10332;50.208;18.988;2023-07-13T01:18:56;2.15;;;1.58;;
20348;SDS011;10332;50.208;18.988;2023-07-13T01:21:28;2.60;;;1.75;;
20348;SDS011;10332;50.208;18.988;2023-07-13T01:23:59;1.83;;;1.60;;
20348;SDS011;10332;50.208;18.988;2023-07-13T01:26:27;1.50;;;1.40;;
20348;SDS011;10332;50.208;18.988;2023-07-13T01:28:54;1.75;;;1.45;;
20348;SDS011;10332;50.208;18.988;2023-07-13T01:31:23;1.85;;;1.40;;
20348;SDS011;10332;50.208;18.988;2023-07-13T01:33:51;1.45;;;1.20;;
20348;SDS011;10332;50.208;18.988;2023-07-13T01:36:20;1.52;;;1.30;;
20348;SDS011;10332;50.208;18.988;2023-07-13T01:38:48;1.95;;;1.75;;
20348;SDS011;10332;50.208;18.988;2023-07-13T01:41:16;2.80;;;2.17;;
20348;SDS011;10332;50.208;18.988;2023-07-13T01:43:43;3.20;;;1.80;;
20348;SDS011;10332;50.208;18.988;2023-07-13T01:46:11;3.25;;;2.60;;
20348;SDS011;10332;50.208;18.988;2023-07-13T01:48:49;5.22;;;3.50;;
20348;SDS011;10332;50.208;18.988;2023-07-13T01:51:18;3.20;;;2.78;;
20348;SDS011;10332;50.208;18.988;2023-07-13T01:53:46;3.85;;;2.97;;
20348;SDS011;10332;50.208;18.988;2023-07-13T01:56:14;4.32;;;2.80;;
20348;SDS011;10332;50.208;18.988;2023-07-13T01:58:41;4.88;;;2.75;;
20348;SDS011;10332;50.208;18.988;2023-07-13T02:01:09;3.15;;;2.67;;
20348;SDS011;10332;50.208;18.988;2023-07-13T02:03:36;3.33;;;2.58;;
20348;SDS011;10332;50.208;18.988;2023-07-13T02:06:04;3.17;;;2.13;;
20348;SDS011;10332;50.208;18.988;2023-07-13T02:08:32;4.20;;;2.40;;
20348;SDS011;10332;50.208;18.988;2023-07-13T02:11:02;3.30;;;2.65;;
20348;SDS011;10332;50.208;18.988;2023-07-13T02:13:30;3.53;;;2.80;;
20348;SDS011;10332;50.208;18.988;2023-07-13T02:15:58;3.65;;;2.38;;
20348;SDS011;10332;50.208;18.988;2023-07-13T02:18:25;3.83;;;2.70;;
20348;SDS011;10332;50.208;18.988;2023-07-13T02:20:53;4.57;;;2.90;;
20348;SDS011;10332;50.208;18.988;2023-07-13T02:23:21;4.32;;;3.40;;
20348;SDS011;10332;50.208;18.988;2023-07-13T02:25:48;4.28;;;3.45;;
20348;SDS011;10332;50.208;18.988;2023-07-13T02:28:20;6.57;;;3.97;;
20348;SDS011;10332;50.208;18.988;2023-07-13T02:30:48;4.32;;;3.10;;
20348;SDS011;10332;50.208;18.988;2023-07-13T02:33:15;4.60;;;3.70;;
20348;SDS011;10332;50.208;18.988;2023-07-13T02:35:43;5.68;;;3.60;;
20348;SDS011;10332;50.208;18.988;2023-07-13T02:38:10;4.03;;;3.35;;
20348;SDS011;10332;50.208;18.988;2023-07-13T02:40:38;4.15;;;3.63;;
20348;SDS011;10332;50.208;18.988;2023-07-13T02:43:05;3.88;;;3.33;;
20348;SDS011;10332;50.208;18.988;2023-07-13T02:45:33;5.20;;;3.55;;
20348;SDS011;10332;50.208;18.988;2023-07-13T02:48:00;4.57;;;3.47;;
20348;SDS011;10332;50.208;18.988;2023-07-13T02:50:28;4.43;;;3.13;;
20348;SDS011;10332;50.208;18.988;2023-07-13T02:52:55;5.45;;;3.10;;
20348;SDS011;10332;50.208;18.988;2023-07-13T02:55:23;6.57;;;3.40;;
20348;SDS011;10332;50.208;18.988;2023-07-13T02:57:50;4.40;;;3.17;;
20348;SDS011;10332;50.208;18.988;2023-07-13T03:00:18;5.18;;;3.50;;
20348;SDS011;10332;50.208;18.988;2023-07-13T03:02:45;4.13;;;3.17;;
20348;SDS011;10332;50.208;18.988;2023-07-13T03:05:13;4.82;;;3.30;;
20348;SDS011;10332;50.208;18.988;2023-07-13T03:07:43;4.85;;;3.28;;
20348;SDS011;10332;50.208;18.988;2023-07-13T03:10:11;4.55;;;3.88;;
20348;SDS011;10332;50.208;18.988;2023-07-13T03:12:40;5.25;;;3.58;;
20348;SDS011;10332;50.208;18.988;2023-07-13T03:15:08;4.50;;;3.10;;
20348;SDS011;10332;50.208;18.988;2023-07-13T03:17:36;5.30;;;3.50;;
20348;SDS011;10332;50.208;18.988;2023-07-13T03:20:04;5.68;;;3.78;;
20348;SDS011;10332;50.208;18.988;2023-07-13T03:22:33;4.35;;;3.35;;
20348;SDS011;10332;50.208;18.988;2023-07-13T03:25:01;5.32;;;3.72;;
20348;SDS011;10332;50.208;18.988;2023-07-13T03:27:28;4.40;;;3.75;;
20348;SDS011;10332;50.208;18.988;2023-07-13T03:29:56;4.65;;;3.20;;
20348;SDS011;10332;50.208;18.988;2023-07-13T03:32:23;3.88;;;3.17;;
20348;SDS011;10332;50.208;18.988;2023-07-13T03:34:51;3.00;;;2.80;;
20348;SDS011;10332;50.208;18.988;2023-07-13T03:37:19;3.15;;;2.60;;
20348;SDS011;10332;50.208;18.988;2023-07-13T03:39:47;2.25;;;2.05;;
20348;SDS011;10332;50.208;18.988;2023-07-13T03:42:15;2.80;;;2.42;;
20348;SDS011;10332;50.208;18.988;2023-07-13T03:44:42;2.47;;;2.28;;
20348;SDS011;10332;50.208;18.988;2023-07-13T03:47:18;2.53;;;2.33;;
20348;SDS011;10332;50.208;18.988;2023-07-13T03:49:46;3.90;;;2.92;;
20348;SDS011;10332;50.208;18.988;2023-07-13T03:52:13;2.55;;;2.30;;
20348;SDS011;10332;50.208;18.988;2023-07-13T03:54:41;2.75;;;2.47;;
20348;SDS011;10332;50.208;18.988;2023-07-13T03:57:09;2.53;;;2.13;;
20348;SDS011;10332;50.208;18.988;2023-07-13T03:59:36;2.38;;;1.90;;
20348;SDS011;10332;50.208;18.988;2023-07-13T04:02:04;3.63;;;2.60;;
20348;SDS011;10332;50.208;18.988;2023-07-13T04:04:32;3.78;;;3.00;;
20348;SDS011;10332;50.208;18.988;2023-07-13T04:06:59;3.05;;;2.53;;
20348;SDS011;10332;50.208;18.988;2023-07-13T04:09:27;2.70;;;2.20;;
20348;SDS011;10332;50.208;18.988;2023-07-13T04:11:54;3.08;;;2.78;;
20348;SDS011;10332;50.208;18.988;2023-07-13T04:14:22;2.30;;;2.10;;
20348;SDS011;10332;50.208;18.988;2023-07-13T04:16:49;1.92;;;1.73;;
20348;SDS011;10332;50.208;18.988;2023-07-13T04:19:17;2.22;;;1.80;;
20348;SDS011;10332;50.208;18.988;2023-07-13T04:21:44;2.45;;;1.92;;
20348;SDS011;10332;50.208;18.988;2023-07-13T04:24:12;1.77;;;1.67;;
20348;SDS011;10332;50.208;18.988;2023-07-13T04:26:39;2.40;;;2.10;;
20348;SDS011;10332;50.208;18.988;2023-07-13T04:29:07;2.45;;;1.92;;
20348;SDS011;10332;50.208;18.988;2023-07-13T04:31:34;2.17;;;1.85;;
20348;SDS011;10332;50.208;18.988;2023-07-13T04:34:02;2.20;;;2.00;;
20348;SDS011;10332;50.208;18.988;2023-07-13T04:36:29;2.50;;;2.20;;
20348;SDS011;10332;50.208;18.988;2023-07-13T04:38:57;2.20;;;1.90;;
20348;SDS011;10332;50.208;18.988;2023-07-13T04:41:24;2.30;;;2.10;;
20348;SDS011;10332;50.208;18.988;2023-07-13T04:43:53;2.60;;;2.40;;
20348;SDS011;10332;50.208;18.988;2023-07-13T04:46:22;4.30;;;3.13;;
20348;SDS011;10332;50.208;18.988;2023-07-13T04:48:50;3.50;;;3.20;;
20348;SDS011;10332;50.208;18.988;2023-07-13T04:51:20;2.90;;;2.63;;
20348;SDS011;10332;50.208;18.988;2023-07-13T04:53:48;3.25;;;2.95;;
20348;SDS011;10332;50.208;18.988;2023-07-13T04:56:19;2.80;;;2.30;;
20348;SDS011;10332;50.208;18.988;2023-07-13T04:58:47;4.97;;;3.20;;
20348;SDS011;10332;50.208;18.988;2023-07-13T05:01:20;4.30;;;3.42;;
20348;SDS011;10332;50.208;18.988;2023-07-13T05:03:48;3.78;;;3.03;;
20348;SDS011;10332;50.208;18.988;2023-07-13T05:06:15;5.15;;;3.80;;
20348;SDS011;10332;50.208;18.988;2023-07-13T05:08:43;3.47;;;3.10;;
20348;SDS011;10332;50.208;18.988;2023-07-13T05:11:11;4.20;;;3.60;;
20348;SDS011;10332;50.208;18.988;2023-07-13T05:13:38;3.78;;;3.40;;
20348;SDS011;10332;50.208;18.988;2023-07-13T05:16:06;3.65;;;2.90;;
20348;SDS011;10332;50.208;18.988;2023-07-13T05:18:35;2.70;;;2.50;;
20348;SDS011;10332;50.208;18.988;2023-07-13T05:21:06;2.50;;;2.30;;
20348;SDS011;10332;50.208;18.988;2023-07-13T05:23:39;2.58;;;2.22;;
20348;SDS011;10332;50.208;18.988;2023-07-13T05:26:08;2.28;;;2.08;;
20348;SDS011;10332;50.208;18.988;2023-07-13T05:28:37;2.40;;;2.20;;
20348;SDS011;10332;50.208;18.988;2023-07-13T05:31:07;2.13;;;1.70;;
20348;SDS011;10332;50.208;18.988;2023-07-13T05:33:37;1.80;;;1.60;;
20348;SDS011;10332;50.208;18.988;2023-07-13T05:36:04;2.20;;;2.00;;
20348;SDS011;10332;50.208;18.988;2023-07-13T05:38:33;1.80;;;1.70;;
20348;SDS011;10332;50.208;18.988;2023-07-13T05:41:01;2.90;;;2.60;;
20348;SDS011;10332;50.208;18.988;2023-07-13T05:43:32;2.85;;;2.30;;
20348;SDS011;10332;50.208;18.988;2023-07-13T05:46:00;3.05;;;2.75;;
20348;SDS011;10332;50.208;18.988;2023-07-13T05:48:28;3.53;;;3.20;;
20348;SDS011;10332;50.208;18.988;2023-07-13T05:50:55;3.55;;;3.25;;
20348;SDS011;10332;50.208;18.988;2023-07-13T05:53:24;4.13;;;3.70;;
20348;SDS011;10332;50.208;18.988;2023-07-13T05:55:51;3.40;;;3.10;;
20348;SDS011;10332;50.208;18.988;2023-07-13T05:58:23;3.95;;;3.10;;
20348;SDS011;10332;50.208;18.988;2023-07-13T06:00:58;3.38;;;2.88;;
20348;SDS011;10332;50.208;18.988;2023-07-13T06:03:30;5.35;;;3.33;;
20348;SDS011;10332;50.208;18.988;2023-07-13T06:05:59;6.07;;;4.15;;
20348;SDS011;10332;50.208;18.988;2023-07-13T06:08:27;5.75;;;4.20;;
20348;SDS011;10332;50.208;18.988;2023-07-13T06:10:55;4.78;;;3.63;;
20348;SDS011;10332;50.208;18.988;2023-07-13T06:13:32;2.97;;;2.50;;
20348;SDS011;10332;50.208;18.988;2023-07-13T06:16:00;2.40;;;2.20;;
20348;SDS011;10332;50.208;18.988;2023-07-13T06:18:32;1.92;;;1.83;;
20348;SDS011;10332;50.208;18.988;2023-07-13T06:21:22;3.47;;;2.20;;
20348;SDS011;10332;50.208;18.988;2023-07-13T06:23:50;2.25;;;2.05;;
20348;SDS011;10332;50.208;18.988;2023-07-13T06:26:20;2.50;;;2.30;;
20348;SDS011;10332;50.208;18.988;2023-07-13T06:28:48;2.70;;;2.30;;
20348;SDS011;10332;50.208;18.988;2023-07-13T06:31:15;4.07;;;2.92;;
20348;SDS011;10332;50.208;18.988;2023-07-13T06:33:44;2.30;;;2.10;;
20348;SDS011;10332;50.208;18.988;2023-07-13T06:36:11;2.10;;;1.85;;
20348;SDS011;10332;50.208;18.988;2023-07-13T06:38:39;2.03;;;1.83;;
20348;SDS011;10332;50.208;18.988;2023-07-13T06:41:07;2.55;;;2.10;;
20348;SDS011;10332;50.208;18.988;2023-07-13T06:43:36;2.30;;;2.10;;
20348;SDS011;10332;50.208;18.988;2023-07-13T06:46:04;3.15;;;2.30;;
20348;SDS011;10332;50.208;18.988;2023-07-13T06:48:31;3.55;;;2.88;;
20348;SDS011;10332;50.208;18.988;2023-07-13T06:50:59;2.85;;;2.50;;
20348;SDS011;10332;50.208;18.988;2023-07-13T06:53:29;3.72;;;2.20;;
20348;SDS011;10332;50.208;18.988;2023-07-13T06:55:56;2.50;;;2.30;;
20348;SDS011;10332;50.208;18.988;2023-07-13T06:58:24;3.65;;;2.78;;
20348;SDS011;10332;50.208;18.988;2023-07-13T07:00:52;2.78;;;2.50;;
20348;SDS011;10332;50.208;18.988;2023-07-13T07:03:20;3.08;;;2.78;;
20348;SDS011;10332;50.208;18.988;2023-07-13T07:05:47;2.92;;;2.63;;
20348;SDS011;10332;50.208;18.988;2023-07-13T07:08:15;2.13;;;1.95;;
20348;SDS011;10332;50.208;18.988;2023-07-13T07:10:43;2.15;;;1.95;;
20348;SDS011;10332;50.208;18.988;2023-07-13T07:13:11;2.00;;;1.83;;
20348;SDS011;10332;50.208;18.988;2023-07-13T07:15:39;1.52;;;1.42;;
20348;SDS011;10332;50.208;18.988;2023-07-13T07:18:07;2.45;;;1.60;;
20348;SDS011;10332;50.208;18.988;2023-07-13T07:20:34;2.00;;;1.80;;
20348;SDS011;10332;50.208;18.988;2023-07-13T07:23:02;3.85;;;2.83;;
20348;SDS011;10332;50.208;18.988;2023-07-13T07:25:30;3.13;;;2.60;;
20348;SDS011;10332;50.208;18.988;2023-07-13T07:27:59;2.88;;;2.13;;
20348;SDS011;10332;50.208;18.988;2023-07-13T07:30:29;3.85;;;2.80;;
20348;SDS011;10332;50.208;18.988;2023-07-13T07:33:00;3.53;;;2.80;;
20348;SDS011;10332;50.208;18.988;2023-07-13T07:35:31;4.53;;;3.40;;
20348;SDS011;10332;50.208;18.988;2023-07-13T07:38:04;5.55;;;4.18;;
20348;SDS011;10332;50.208;18.988;2023-07-13T07:40:32;7.90;;;4.47;;
20348;SDS011;10332;50.208;18.988;2023-07-13T07:43:08;9.18;;;4.47;;
20348;SDS011;10332;50.208;18.988;2023-07-13T07:45:39;5.97;;;4.50;;
20348;SDS011;10332;50.208;18.988;2023-07-13T07:48:08;6.20;;;4.47;;
20348;SDS011;10332;50.208;18.988;2023-07-13T07:50:36;7.85;;;4.43;;
20348;SDS011;10332;50.208;18.988;2023-07-13T07:53:06;6.80;;;3.88;;
20348;SDS011;10332;50.208;18.988;2023-07-13T07:55:34;5.90;;;4.45;;
20348;SDS011;10332;50.208;18.988;2023-07-13T07:58:05;4.50;;;3.90;;
20348;SDS011;10332;50.208;18.988;2023-07-13T08:00:53;4.78;;;4.13;;
20348;SDS011;10332;50.208;18.988;2023-07-13T08:03:31;4.13;;;3.63;;
20348;SDS011;10332;50.208;18.988;2023-07-13T08:06:02;4.85;;;3.90;;
20348;SDS011;10332;50.208;18.988;2023-07-13T08:08:34;6.03;;;4.53;;
20348;SDS011;10332;50.208;18.988;2023-07-13T08:11:02;6.90;;;3.63;;
20348;SDS011;10332;50.208;18.988;2023-07-13T08:13:38;6.43;;;4.75;;
20348;SDS011;10332;50.208;18.988;2023-07-13T08:16:05;5.03;;;4.30;;
20348;SDS011;10332;50.208;18.988;2023-07-13T08:18:34;4.28;;;3.88;;
20348;SDS011;10332;50.208;18.988;2023-07-13T08:21:05;4.60;;;3.42;;
20348;SDS011;10332;50.208;18.988;2023-07-13T08:23:35;4.75;;;3.45;;
20348;SDS011;10332;50.208;18.988;2023-07-13T08:26:03;4.25;;;3.55;;
20348;SDS011;10332;50.208;18.988;2023-07-13T08:28:31;5.60;;;4.50;;
20348;SDS011;10332;50.208;18.988;2023-07-13T08:31:03;4.28;;;3.35;;
20348;SDS011;10332;50.208;18.988;2023-07-13T08:33:35;7.72;;;4.82;;
20348;SDS011;10332;50.208;18.988;2023-07-13T08:36:03;5.82;;;4.68;;
20348;SDS011;10332;50.208;18.988;2023-07-13T08:38:32;4.47;;;3.83;;
20348;SDS011;10332;50.208;18.988;2023-07-13T08:41:00;7.78;;;5.60;;
20348;SDS011;10332;50.208;18.988;2023-07-13T08:43:39;5.25;;;3.95;;
20348;SDS011;10332;50.208;18.988;2023-07-13T08:46:13;4.53;;;3.85;;
20348;SDS011;10332;50.208;18.988;2023-07-13T08:48:56;6.10;;;3.85;;
20348;SDS011;10332;50.208;18.988;2023-07-13T08:51:45;5.40;;;3.72;;
20348;SDS011;10332;50.208;18.988;2023-07-13T08:57:16;4.55;;;3.95;;
20348;SDS011;10332;50.208;18.988;2023-07-13T08:59:58;5.60;;;4.00;;
20348;SDS011;10332;50.208;18.988;2023-07-13T09:02:26;4.72;;;3.92;;
20348;SDS011;10332;50.208;18.988;2023-07-13T09:05:14;4.18;;;3.47;;
20348;SDS011;10332;50.208;18.988;2023-07-13T09:10:28;4.60;;;3.50;;
20348;SDS011;10332;50.208;18.988;2023-07-13T09:14:05;4.70;;;3.72;;
20348;SDS011;10332;50.208;18.988;2023-07-13T09:16:13;4.18;;;3.25;;
20348;SDS011;10332;50.208;18.988;2023-07-13T09:18:42;3.85;;;3.30;;
20348;SDS011;10332;50.208;18.988;2023-07-13T09:21:17;4.65;;;3.63;;
20348;SDS011;10332;50.208;18.988;2023-07-13T09:24:06;5.65;;;3.55;;
20348;SDS011;10332;50.208;18.988;2023-07-13T09:27:17;4.63;;;3.42;;
20348;SDS011;10332;50.208;18.988;2023-07-13T09:32:46;5.22;;;3.92;;
20348;SDS011;10332;50.208;18.988;2023-07-13T09:35:19;5.35;;;3.47;;
20348;SDS011;10332;50.208;18.988;2023-07-13T09:37:57;5.15;;;3.63;;
20348;SDS011;10332;50.208;18.988;2023-07-13T09:44:13;8.18;;;5.88;;
20348;SDS011;10332;50.208;18.988;2023-07-13T09:47:01;8.70;;;6.65;;
20348;SDS011;10332;50.208;18.988;2023-07-13T09:49:33;8.90;;;7.18;;
20348;SDS011;10332;50.208;18.988;2023-07-13T09:52:05;9.50;;;7.03;;
20348;SDS011;10332;50.208;18.988;2023-07-13T09:54:38;9.60;;;6.05;;
20348;SDS011;10332;50.208;18.988;2023-07-13T09:57:13;9.70;;;6.35;;
20348;SDS011;10332;50.208;18.988;2023-07-13T09:59:45;9.10;;;6.97;;
20348;SDS011;10332;50.208;18.988;2023-07-13T10:02:32;5.40;;;4.55;;
20348;SDS011;10332;50.208;18.988;2023-07-13T10:05:07;4.18;;;3.40;;
20348;SDS011;10332;50.208;18.988;2023-07-13T10:07:43;5.38;;;3.25;;
20348;SDS011;10332;50.208;18.988;2023-07-13T10:10:21;4.30;;;2.80;;
20348;SDS011;10332;50.208;18.988;2023-07-13T10:12:52;4.13;;;2.50;;
20348;SDS011;10332;50.208;18.988;2023-07-13T10:15:21;4.35;;;2.60;;
20348;SDS011;10332;50.208;18.988;2023-07-13T10:17:52;3.22;;;2.33;;
20348;SDS011;10332;50.208;18.988;2023-07-13T10:20:25;2.35;;;1.92;;
20348;SDS011;10332;50.208;18.988;2023-07-13T10:22:57;2.88;;;2.08;;
20348;SDS011;10332;50.208;18.988;2023-07-13T10:25:39;4.07;;;2.20;;
20348;SDS011;10332;50.208;18.988;2023-07-13T10:28:29;3.20;;;1.73;;
20348;SDS011;10332;50.208;18.988;2023-07-13T10:31:04;2.40;;;1.77;;
20348;SDS011;10332;50.208;18.988;2023-07-13T10:33:39;2.83;;;1.70;;
20348;SDS011;10332;50.208;18.988;2023-07-13T10:38:59;1.65;;;1.40;;
20348;SDS011;10332;50.208;18.988;2023-07-13T10:41:32;1.83;;;1.30;;
20348;SDS011;10332;50.208;18.988;2023-07-13T10:44:09;2.28;;;1.30;;
20348;SDS011;10332;50.208;18.988;2023-07-13T10:46:48;4.10;;;2.70;;
20348;SDS011;10332;50.208;18.988;2023-07-13T10:49:16;2.38;;;1.77;;
20348;SDS011;10332;50.208;18.988;2023-07-13T10:51:46;1.92;;;1.33;;
20348;SDS011;10332;50.208;18.988;2023-07-13T10:54:18;1.30;;;1.20;;
20348;SDS011;10332;50.208;18.988;2023-07-13T10:57:10;1.35;;;1.02;;
20348;SDS011;10332;50.208;18.988;2023-07-13T11:02:55;1.10;;;0.68;;
20348;SDS011;10332;50.208;18.988;2023-07-13T11:05:30;1.30;;;1.10;;
20348;SDS011;10332;50.208;18.988;2023-07-13T11:08:12;2.72;;;1.92;;
20348;SDS011;10332;50.208;18.988;2023-07-13T11:10:54;1.60;;;1.45;;
20348;SDS011;10332;50.208;18.988;2023-07-13T11:13:36;1.40;;;1.30;;
20348;SDS011;10332;50.208;18.988;2023-07-13T11:21:29;1.75;;;1.40;;
20348;SDS011;10332;50.208;18.988;2023-07-13T11:26:44;1.70;;;1.20;;
20348;SDS011;10332;50.208;18.988;2023-07-13T11:31:59;2.13;;;1.65;;
20348;SDS011;10332;50.208;18.988;2023-07-13T11:34:49;2.35;;;1.73;;
20348;SDS011;10332;50.208;18.988;2023-07-13T11:37:17;2.35;;;1.70;;
20348;SDS011;10332;50.208;18.988;2023-07-13T11:39:47;2.30;;;1.80;;
20348;SDS011;10332;50.208;18.988;2023-07-13T11:42:18;2.58;;;1.80;;
20348;SDS011;10332;50.208;18.988;2023-07-13T11:44:49;2.90;;;2.20;;
20348;SDS011;10332;50.208;18.988;2023-07-13T11:47:39;2.70;;;1.80;;
20348;SDS011;10332;50.208;18.988;2023-07-13T11:50:21;2.40;;;1.40;;
20348;SDS011;10332;50.208;18.988;2023-07-13T11:52:52;1.95;;;1.50;;
20348;SDS011;10332;50.208;18.988;2023-07-13T11:55:23;2.20;;;1.60;;
20348;SDS011;10332;50.208;18.988;2023-07-13T11:57:54;1.75;;;1.30;;
20348;SDS011;10332;50.208;18.988;2023-07-13T12:00:28;8.23;;;6.32;;
20348;SDS011;10332;50.208;18.988;2023-07-13T12:03:00;7.68;;;6.72;;
20348;SDS011;10332;50.208;18.988;2023-07-13T12:05:32;4.97;;;4.15;;
20348;SDS011;10332;50.208;18.988;2023-07-13T12:08:08;3.33;;;2.50;;
20348;SDS011;10332;50.208;18.988;2023-07-13T12:10:56;3.75;;;2.10;;
20348;SDS011;10332;50.208;18.988;2023-07-13T12:13:27;2.17;;;1.70;;
20348;SDS011;10332;50.208;18.988;2023-07-13T12:15:56;1.40;;;1.30;;
20348;SDS011;10332;50.208;18.988;2023-07-13T12:18:28;3.05;;;1.67;;
20348;SDS011;10332;50.208;18.988;2023-07-13T12:20:58;1.38;;;1.27;;
20348;SDS011;10332;50.208;18.988;2023-07-13T12:23:30;1.10;;;1.00;;
20348;SDS011;10332;50.208;18.988;2023-07-13T12:26:02;1.30;;;0.90;;
20348;SDS011;10332;50.208;18.988;2023-07-13T12:31:04;1.02;;;0.80;;
20348;SDS011;10332;50.208;18.988;2023-07-13T12:33:46;1.80;;;1.10;;
20348;SDS011;10332;50.208;18.988;2023-07-13T12:36:13;1.90;;;1.40;;
20348;SDS011;10332;50.208;18.988;2023-07-13T12:38:41;1.38;;;1.25;;
20348;SDS011;10332;50.208;18.988;2023-07-13T12:41:14;2.85;;;2.08;;
20348;SDS011;10332;50.208;18.988;2023-07-13T12:43:42;4.20;;;2.17;;
20348;SDS011;10332;50.208;18.988;2023-07-13T12:46:19;4.15;;;2.30;;
20348;SDS011;10332;50.208;18.988;2023-07-13T12:48:56;2.80;;;1.80;;
20348;SDS011;10332;50.208;18.988;2023-07-13T12:51:43;1.80;;;1.60;;
20348;SDS011;10332;50.208;18.988;2023-07-13T12:54:16;1.85;;;1.40;;
20348;SDS011;10332;50.208;18.988;2023-07-13T12:56:49;3.33;;;1.58;;
20348;SDS011;10332;50.208;18.988;2023-07-13T12:59:20;2.38;;;1.17;;
20348;SDS011;10332;50.208;18.988;2023-07-13T13:01:53;1.75;;;1.50;;
20348;SDS011;10332;50.208;18.988;2023-07-13T13:04:20;3.38;;;1.85;;
20348;SDS011;10332;50.208;18.988;2023-07-13T13:06:59;2.80;;;2.20;;
20348;SDS011;10332;50.208;18.988;2023-07-13T13:09:30;2.15;;;1.85;;
20348;SDS011;10332;50.208;18.988;2023-07-13T13:11:58;2.22;;;1.80;;
20348;SDS011;10332;50.208;18.988;2023-07-13T13:14:25;2.55;;;1.85;;
20348;SDS011;10332;50.208;18.988;2023-07-13T13:16:53;2.50;;;1.20;;
20348;SDS011;10332;50.208;18.988;2023-07-13T13:19:25;2.17;;;1.98;;
20348;SDS011;10332;50.208;18.988;2023-07-13T13:21:55;1.55;;;1.45;;
20348;SDS011;10332;50.208;18.988;2023-07-13T13:24:25;2.05;;;1.85;;
20348;SDS011;10332;50.208;18.988;2023-07-13T13:26:55;3.13;;;2.22;;
20348;SDS011;10332;50.208;18.988;2023-07-13T13:29:24;2.80;;;2.10;;
20348;SDS011;10332;50.208;18.988;2023-07-13T13:31:53;2.83;;;2.38;;
20348;SDS011;10332;50.208;18.988;2023-07-13T13:34:23;4.18;;;2.70;;
20348;SDS011;10332;50.208;18.988;2023-07-13T13:36:52;2.90;;;2.70;;
20348;SDS011;10332;50.208;18.988;2023-07-13T13:39:35;2.75;;;2.53;;
20348;SDS011;10332;50.208;18.988;2023-07-13T13:42:10;7.43;;;5.80;;
20348;SDS011;10332;50.208;18.988;2023-07-13T13:44:38;3.60;;;2.88;;
20348;SDS011;10332;50.208;18.988;2023-07-13T13:47:13;4.53;;;2.80;;
20348;SDS011;10332;50.208;18.988;2023-07-13T13:49:59;2.60;;;2.00;;
20348;SDS011;10332;50.208;18.988;2023-07-13T13:52:28;2.45;;;1.70;;
20348;SDS011;10332;50.208;18.988;2023-07-13T13:54:55;2.42;;;1.85;;
20348;SDS011;10332;50.208;18.988;2023-07-13T13:57:23;1.98;;;1.73;;
20348;SDS011;10332;50.208;18.988;2023-07-13T13:59:54;2.42;;;2.05;;
20348;SDS011;10332;50.208;18.988;2023-07-13T14:02:23;3.20;;;1.98;;
20348;SDS011;10332;50.208;18.988;2023-07-13T14:04:59;1.45;;;1.35;;
20348;SDS011;10332;50.208;18.988;2023-07-13T14:07:30;2.38;;;1.45;;
20348;SDS011;10332;50.208;18.988;2023-07-13T14:09:58;3.33;;;1.77;;
20348;SDS011;10332;50.208;18.988;2023-07-13T14:12:27;1.73;;;1.63;;
20348;SDS011;10332;50.208;18.988;2023-07-13T14:14:56;3.42;;;1.80;;
20348;SDS011;10332;50.208;18.988;2023-07-13T14:17:26;1.83;;;1.60;;
20348;SDS011;10332;50.208;18.988;2023-07-13T14:19:55;2.55;;;1.98;;
20348;SDS011;10332;50.208;18.988;2023-07-13T14:22:25;3.00;;;1.73;;
20348;SDS011;10332;50.208;18.988;2023-07-13T14:24:53;1.88;;;1.27;;
20348;SDS011;10332;50.208;18.988;2023-07-13T14:27:23;1.63;;;1.38;;
20348;SDS011;10332;50.208;18.988;2023-07-13T14:29:51;2.97;;;1.90;;
20348;SDS011;10332;50.208;18.988;2023-07-13T14:32:19;2.92;;;2.47;;
20348;SDS011;10332;50.208;18.988;2023-07-13T14:34:47;2.80;;;2.53;;
20348;SDS011;10332;50.208;18.988;2023-07-13T14:37:15;1.75;;;1.10;;
20348;SDS011;10332;50.208;18.988;2023-07-13T14:39:43;1.23;;;1.13;;
20348;SDS011;10332;50.208;18.988;2023-07-13T14:42:12;2.20;;;2.00;;
20348;SDS011;10332;50.208;18.988;2023-07-13T14:44:40;3.97;;;3.30;;
20348;SDS011;10332;50.208;18.988;2023-07-13T14:47:08;2.67;;;2.15;;
20348;SDS011;10332;50.208;18.988;2023-07-13T14:49:42;2.05;;;1.50;;
20348;SDS011;10332;50.208;18.988;2023-07-13T14:54:43;2.67;;;2.22;;
20348;SDS011;10332;50.208;18.988;2023-07-13T14:57:13;2.83;;;2.40;;
20348;SDS011;10332;50.208;18.988;2023-07-13T14:59:44;1.70;;;1.60;;
20348;SDS011;10332;50.208;18.988;2023-07-13T15:04:48;1.80;;;1.38;;
20348;SDS011;10332;50.208;18.988;2023-07-13T15:07:15;1.30;;;1.20;;
20348;SDS011;10332;50.208;18.988;2023-07-13T15:09:44;1.33;;;1.20;;
20348;SDS011;10332;50.208;18.988;2023-07-13T15:12:12;2.53;;;1.80;;
20348;SDS011;10332;50.208;18.988;2023-07-13T15:14:40;2.63;;;2.03;;
20348;SDS011;10332;50.208;18.988;2023-07-13T15:17:18;1.95;;;1.55;;
20348;SDS011;10332;50.208;18.988;2023-07-13T15:20:06;1.90;;;1.40;;
20348;SDS011;10332;50.208;18.988;2023-07-13T15:22:53;1.38;;;1.27;;
20348;SDS011;10332;50.208;18.988;2023-07-13T15:25:26;2.50;;;1.40;;
20348;SDS011;10332;50.208;18.988;2023-07-13T15:27:57;1.50;;;1.40;;
20348;SDS011;10332;50.208;18.988;2023-07-13T15:30:46;1.50;;;1.40;;
20348;SDS011;10332;50.208;18.988;2023-07-13T15:33:17;2.03;;;1.83;;
20348;SDS011;10332;50.208;18.988;2023-07-13T15:35:54;4.53;;;3.28;;